sensor_id;sensor_type;location;lat;lon;timestamp;P1;durP1;ratioP1;P2;durP2;ratioP2
68690;SDS011;55675;49.588;8.640;2023-04-15T00:00:37;4.83;;;3.30;;
68690;SDS011;55675;49.588;8.640;2023-04-15T00:03:03;6.63;;;3.87;;
68690;SDS011;55675;49.588;8.640;2023-04-15T00:05:32;6.77;;;3.30;;
68690;SDS011;55675;49.588;8.640;2023-04-15T00:07:58;3.50;;;3.17;;
68690;SDS011;55675;49.588;8.640;2023-04-15T00:10:25;5.60;;;3.50;;
68690;SDS011;55675;49.588;8.640;2023-04-15T00:12:51;5.90;;;3.73;;
68690;SDS011;55675;49.588;8.640;2023-04-15T00:15:17;4.07;;;3.13;;
68690;SDS011;55675;49.588;8.640;2023-04-15T00:17:43;7.10;;;4.10;;
68690;SDS011;55675;49.588;8.640;2023-04-15T00:20:09;4.97;;;3.70;;
68690;SDS011;55675;49.588;8.640;2023-04-15T00:22:34;4.37;;;3.00;;
68690;SDS011;55675;49.588;8.640;2023-04-15T00:25:00;4.80;;;3.67;;
68690;SDS011;55675;49.588;8.640;2023-04-15T00:27:26;5.53;;;3.33;;
68690;SDS011;55675;49.588;8.640;2023-04-15T00:29:52;3.50;;;3.03;;
68690;SDS011;55675;49.588;8.640;2023-04-15T00:32:18;6.50;;;3.47;;
68690;SDS011;55675;49.588;8.640;2023-04-15T00:34:44;5.37;;;3.57;;
68690;SDS011;55675;49.588;8.640;2023-04-15T00:37:10;5.70;;;3.40;;
68690;SDS011;55675;49.588;8.640;2023-04-15T00:39:35;7.43;;;3.53;;
68690;SDS011;55675;49.588;8.640;2023-04-15T00:42:01;5.27;;;3.63;;
68690;SDS011;55675;49.588;8.640;2023-04-15T00:44:30;7.47;;;3.37;;
68690;SDS011;55675;49.588;8.640;2023-04-15T00:46:57;6.03;;;3.30;;
68690;SDS011;55675;49.588;8.640;2023-04-15T00:49:24;7.43;;;3.53;;
68690;SDS011;55675;49.588;8.640;2023-04-15T00:51:51;4.73;;;2.97;;
68690;SDS011;55675;49.588;8.640;2023-04-15T00:54:16;5.07;;;3.30;;
68690;SDS011;55675;49.588;8.640;2023-04-15T00:56:42;3.70;;;3.33;;
68690;SDS011;55675;49.588;8.640;2023-04-15T00:59:08;3.73;;;2.73;;
68690;SDS011;55675;49.588;8.640;2023-04-15T01:01:34;4.23;;;3.10;;
68690;SDS011;55675;49.588;8.640;2023-04-15T01:04:00;5.00;;;3.10;;
68690;SDS011;55675;49.588;8.640;2023-04-15T01:06:27;6.00;;;3.33;;
68690;SDS011;55675;49.588;8.640;2023-04-15T01:08:53;6.00;;;3.40;;
68690;SDS011;55675;49.588;8.640;2023-04-15T01:11:20;8.07;;;6.00;;
68690;SDS011;55675;49.588;8.640;2023-04-15T01:13:47;9.43;;;5.00;;
68690;SDS011;55675;49.588;8.640;2023-04-15T01:16:14;6.10;;;3.37;;
68690;SDS011;55675;49.588;8.640;2023-04-15T01:18:40;4.83;;;3.87;;
68690;SDS011;55675;49.588;8.640;2023-04-15T01:21:06;5.67;;;3.67;;
68690;SDS011;55675;49.588;8.640;2023-04-15T01:23:32;7.00;;;3.93;;
68690;SDS011;55675;49.588;8.640;2023-04-15T01:26:01;4.90;;;3.80;;
68690;SDS011;55675;49.588;8.640;2023-04-15T01:28:27;4.60;;;3.50;;
68690;SDS011;55675;49.588;8.640;2023-04-15T01:33:31;6.80;;;4.20;;
68690;SDS011;55675;49.588;8.640;2023-04-15T01:35:56;7.03;;;3.80;;
68690;SDS011;55675;49.588;8.640;2023-04-15T01:38:22;5.13;;;3.40;;
68690;SDS011;55675;49.588;8.640;2023-04-15T01:40:48;5.33;;;3.53;;
68690;SDS011;55675;49.588;8.640;2023-04-15T01:43:13;6.63;;;3.57;;
68690;SDS011;55675;49.588;8.640;2023-04-15T01:45:39;5.53;;;4.07;;
68690;SDS011;55675;49.588;8.640;2023-04-15T01:48:05;9.43;;;3.73;;
68690;SDS011;55675;49.588;8.640;2023-04-15T01:50:31;5.37;;;3.13;;
68690;SDS011;55675;49.588;8.640;2023-04-15T01:52:56;5.83;;;3.50;;
68690;SDS011;55675;49.588;8.640;2023-04-15T01:55:22;5.13;;;3.20;;
68690;SDS011;55675;49.588;8.640;2023-04-15T01:57:47;4.23;;;3.40;;
68690;SDS011;55675;49.588;8.640;2023-04-15T02:00:13;5.93;;;2.97;;
68690;SDS011;55675;49.588;8.640;2023-04-15T02:02:39;4.97;;;3.13;;
68690;SDS011;55675;49.588;8.640;2023-04-15T02:05:05;4.87;;;3.30;;
68690;SDS011;55675;49.588;8.640;2023-04-15T02:07:30;6.00;;;3.10;;
68690;SDS011;55675;49.588;8.640;2023-04-15T02:09:56;5.70;;;3.37;;
68690;SDS011;55675;49.588;8.640;2023-04-15T02:12:22;4.03;;;3.50;;
68690;SDS011;55675;49.588;8.640;2023-04-15T02:14:47;5.67;;;3.50;;
68690;SDS011;55675;49.588;8.640;2023-04-15T02:17:12;5.67;;;3.07;;
68690;SDS011;55675;49.588;8.640;2023-04-15T02:19:38;6.00;;;3.40;;
68690;SDS011;55675;49.588;8.640;2023-04-15T02:22:04;5.83;;;3.20;;
68690;SDS011;55675;49.588;8.640;2023-04-15T02:24:31;4.40;;;3.67;;
68690;SDS011;55675;49.588;8.640;2023-04-15T02:26:57;5.37;;;3.70;;
68690;SDS011;55675;49.588;8.640;2023-04-15T02:29:22;4.63;;;3.90;;
68690;SDS011;55675;49.588;8.640;2023-04-15T02:31:48;4.50;;;3.50;;
68690;SDS011;55675;49.588;8.640;2023-04-15T02:34:14;6.70;;;3.97;;
68690;SDS011;55675;49.588;8.640;2023-04-15T02:36:39;4.07;;;3.03;;
68690;SDS011;55675;49.588;8.640;2023-04-15T02:39:05;4.57;;;3.40;;
68690;SDS011;55675;49.588;8.640;2023-04-15T02:41:32;4.70;;;3.43;;
68690;SDS011;55675;49.588;8.640;2023-04-15T02:43:57;4.97;;;3.80;;
68690;SDS011;55675;49.588;8.640;2023-04-15T02:46:23;5.23;;;3.50;;
68690;SDS011;55675;49.588;8.640;2023-04-15T02:48:49;5.30;;;3.70;;
68690;SDS011;55675;49.588;8.640;2023-04-15T02:51:15;5.00;;;3.47;;
68690;SDS011;55675;49.588;8.640;2023-04-15T02:53:43;5.10;;;3.23;;
68690;SDS011;55675;49.588;8.640;2023-04-15T02:56:10;3.87;;;3.47;;
68690;SDS011;55675;49.588;8.640;2023-04-15T02:58:35;6.63;;;3.37;;
68690;SDS011;55675;49.588;8.640;2023-04-15T03:01:01;5.07;;;3.20;;
68690;SDS011;55675;49.588;8.640;2023-04-15T03:03:27;8.50;;;3.33;;
68690;SDS011;55675;49.588;8.640;2023-04-15T03:05:52;4.43;;;3.40;;
68690;SDS011;55675;49.588;8.640;2023-04-15T03:08:18;5.90;;;3.67;;
68690;SDS011;55675;49.588;8.640;2023-04-15T03:10:45;4.93;;;3.47;;
68690;SDS011;55675;49.588;8.640;2023-04-15T03:13:11;4.67;;;3.27;;
68690;SDS011;55675;49.588;8.640;2023-04-15T03:15:36;5.07;;;3.43;;
68690;SDS011;55675;49.588;8.640;2023-04-15T03:18:02;4.87;;;3.93;;
68690;SDS011;55675;49.588;8.640;2023-04-15T03:20:28;3.37;;;3.07;;
68690;SDS011;55675;49.588;8.640;2023-04-15T03:22:53;5.00;;;3.17;;
68690;SDS011;55675;49.588;8.640;2023-04-15T03:25:19;6.97;;;3.73;;
68690;SDS011;55675;49.588;8.640;2023-04-15T03:27:44;3.07;;;2.60;;
68690;SDS011;55675;49.588;8.640;2023-04-15T03:30:10;3.50;;;3.20;;
68690;SDS011;55675;49.588;8.640;2023-04-15T03:32:36;3.77;;;3.40;;
68690;SDS011;55675;49.588;8.640;2023-04-15T03:35:02;3.60;;;3.30;;
68690;SDS011;55675;49.588;8.640;2023-04-15T03:37:27;2.97;;;2.60;;
68690;SDS011;55675;49.588;8.640;2023-04-15T03:39:53;4.43;;;3.10;;
68690;SDS011;55675;49.588;8.640;2023-04-15T03:42:18;3.37;;;2.70;;
68690;SDS011;55675;49.588;8.640;2023-04-15T03:44:44;4.20;;;2.83;;
68690;SDS011;55675;49.588;8.640;2023-04-15T03:47:09;4.47;;;2.93;;
68690;SDS011;55675;49.588;8.640;2023-04-15T03:49:36;3.10;;;2.80;;
68690;SDS011;55675;49.588;8.640;2023-04-15T03:52:02;3.60;;;2.43;;
68690;SDS011;55675;49.588;8.640;2023-04-15T03:54:27;2.93;;;2.60;;
68690;SDS011;55675;49.588;8.640;2023-04-15T03:56:53;3.43;;;2.97;;
68690;SDS011;55675;49.588;8.640;2023-04-15T03:59:18;4.43;;;2.77;;
68690;SDS011;55675;49.588;8.640;2023-04-15T04:01:44;4.37;;;2.87;;
68690;SDS011;55675;49.588;8.640;2023-04-15T04:04:09;3.37;;;2.80;;
68690;SDS011;55675;49.588;8.640;2023-04-15T04:06:35;3.70;;;2.80;;
68690;SDS011;55675;49.588;8.640;2023-04-15T04:09:01;3.00;;;2.70;;
68690;SDS011;55675;49.588;8.640;2023-04-15T04:11:26;4.30;;;3.07;;
68690;SDS011;55675;49.588;8.640;2023-04-15T04:13:52;4.27;;;2.90;;
68690;SDS011;55675;49.588;8.640;2023-04-15T04:16:18;3.87;;;3.27;;
68690;SDS011;55675;49.588;8.640;2023-04-15T04:18:43;3.83;;;2.60;;
68690;SDS011;55675;49.588;8.640;2023-04-15T04:21:09;3.47;;;2.93;;
68690;SDS011;55675;49.588;8.640;2023-04-15T04:23:34;4.27;;;2.90;;
68690;SDS011;55675;49.588;8.640;2023-04-15T04:26:00;4.67;;;2.93;;
68690;SDS011;55675;49.588;8.640;2023-04-15T04:28:26;5.93;;;3.33;;
68690;SDS011;55675;49.588;8.640;2023-04-15T04:30:52;4.20;;;3.10;;
68690;SDS011;55675;49.588;8.640;2023-04-15T04:33:17;5.00;;;3.30;;
68690;SDS011;55675;49.588;8.640;2023-04-15T04:35:43;3.93;;;3.10;;
68690;SDS011;55675;49.588;8.640;2023-04-15T04:38:08;5.23;;;3.23;;
68690;SDS011;55675;49.588;8.640;2023-04-15T04:40:34;4.63;;;3.13;;
68690;SDS011;55675;49.588;8.640;2023-04-15T04:43:00;3.33;;;2.90;;
68690;SDS011;55675;49.588;8.640;2023-04-15T04:45:26;3.73;;;3.00;;
68690;SDS011;55675;49.588;8.640;2023-04-15T04:47:52;3.97;;;3.03;;
68690;SDS011;55675;49.588;8.640;2023-04-15T04:50:17;3.40;;;3.03;;
68690;SDS011;55675;49.588;8.640;2023-04-15T04:52:43;5.83;;;3.30;;
68690;SDS011;55675;49.588;8.640;2023-04-15T04:55:08;4.53;;;3.27;;
68690;SDS011;55675;49.588;8.640;2023-04-15T04:57:34;4.50;;;3.00;;
68690;SDS011;55675;49.588;8.640;2023-04-15T05:00:00;4.47;;;3.30;;
68690;SDS011;55675;49.588;8.640;2023-04-15T05:02:27;5.30;;;3.30;;
68690;SDS011;55675;49.588;8.640;2023-04-15T05:04:52;6.83;;;3.73;;
68690;SDS011;55675;49.588;8.640;2023-04-15T05:07:18;4.57;;;3.40;;
68690;SDS011;55675;49.588;8.640;2023-04-15T05:09:45;5.70;;;3.13;;
68690;SDS011;55675;49.588;8.640;2023-04-15T05:12:10;5.70;;;3.03;;
68690;SDS011;55675;49.588;8.640;2023-04-15T05:14:39;6.23;;;3.30;;
68690;SDS011;55675;49.588;8.640;2023-04-15T05:17:05;5.03;;;3.50;;
68690;SDS011;55675;49.588;8.640;2023-04-15T05:19:30;5.83;;;3.37;;
68690;SDS011;55675;49.588;8.640;2023-04-15T05:21:56;4.17;;;3.40;;
68690;SDS011;55675;49.588;8.640;2023-04-15T05:24:21;4.63;;;3.60;;
68690;SDS011;55675;49.588;8.640;2023-04-15T05:26:47;3.10;;;2.80;;
68690;SDS011;55675;49.588;8.640;2023-04-15T05:29:13;4.10;;;3.10;;
68690;SDS011;55675;49.588;8.640;2023-04-15T05:31:38;6.33;;;2.90;;
68690;SDS011;55675;49.588;8.640;2023-04-15T05:34:04;2.43;;;2.23;;
68690;SDS011;55675;49.588;8.640;2023-04-15T05:36:31;2.60;;;2.40;;
68690;SDS011;55675;49.588;8.640;2023-04-15T05:38:56;3.37;;;3.07;;
68690;SDS011;55675;49.588;8.640;2023-04-15T05:41:22;3.07;;;2.60;;
68690;SDS011;55675;49.588;8.640;2023-04-15T05:43:47;6.53;;;3.37;;
68690;SDS011;55675;49.588;8.640;2023-04-15T05:46:13;3.63;;;3.00;;
68690;SDS011;55675;49.588;8.640;2023-04-15T05:48:39;3.03;;;2.73;;
68690;SDS011;55675;49.588;8.640;2023-04-15T05:51:04;4.13;;;3.00;;
68690;SDS011;55675;49.588;8.640;2023-04-15T05:53:30;4.77;;;3.30;;
68690;SDS011;55675;49.588;8.640;2023-04-15T05:55:56;4.13;;;3.10;;
68690;SDS011;55675;49.588;8.640;2023-04-15T05:58:21;5.03;;;2.83;;
68690;SDS011;55675;49.588;8.640;2023-04-15T06:00:47;5.20;;;2.90;;
68690;SDS011;55675;49.588;8.640;2023-04-15T06:03:13;3.80;;;3.00;;
68690;SDS011;55675;49.588;8.640;2023-04-15T06:05:38;4.40;;;2.87;;
68690;SDS011;55675;49.588;8.640;2023-04-15T06:08:04;3.83;;;3.00;;
68690;SDS011;55675;49.588;8.640;2023-04-15T06:10:30;4.00;;;3.20;;
68690;SDS011;55675;49.588;8.640;2023-04-15T06:13:00;3.83;;;3.07;;
68690;SDS011;55675;49.588;8.640;2023-04-15T06:15:28;4.23;;;3.37;;
68690;SDS011;55675;49.588;8.640;2023-04-15T06:17:54;6.50;;;3.37;;
68690;SDS011;55675;49.588;8.640;2023-04-15T06:20:20;6.43;;;3.10;;
68690;SDS011;55675;49.588;8.640;2023-04-15T06:22:45;7.90;;;3.50;;
68690;SDS011;55675;49.588;8.640;2023-04-15T06:25:11;5.40;;;3.37;;
68690;SDS011;55675;49.588;8.640;2023-04-15T06:27:36;5.53;;;4.00;;
68690;SDS011;55675;49.588;8.640;2023-04-15T06:30:02;6.33;;;3.50;;
68690;SDS011;55675;49.588;8.640;2023-04-15T06:32:28;5.57;;;3.03;;
68690;SDS011;55675;49.588;8.640;2023-04-15T06:34:54;6.37;;;3.53;;
68690;SDS011;55675;49.588;8.640;2023-04-15T06:37:20;5.67;;;3.40;;
68690;SDS011;55675;49.588;8.640;2023-04-15T06:39:46;3.83;;;3.47;;
68690;SDS011;55675;49.588;8.640;2023-04-15T06:42:11;6.53;;;3.43;;
68690;SDS011;55675;49.588;8.640;2023-04-15T06:44:37;3.77;;;3.30;;
68690;SDS011;55675;49.588;8.640;2023-04-15T06:47:03;4.00;;;3.23;;
68690;SDS011;55675;49.588;8.640;2023-04-15T06:49:29;5.10;;;3.63;;
68690;SDS011;55675;49.588;8.640;2023-04-15T06:51:54;5.03;;;3.63;;
68690;SDS011;55675;49.588;8.640;2023-04-15T06:54:20;4.07;;;3.40;;
68690;SDS011;55675;49.588;8.640;2023-04-15T06:56:45;4.27;;;3.07;;
68690;SDS011;55675;49.588;8.640;2023-04-15T06:59:11;3.43;;;3.13;;
68690;SDS011;55675;49.588;8.640;2023-04-15T07:01:38;6.40;;;3.60;;
68690;SDS011;55675;49.588;8.640;2023-04-15T07:04:05;4.70;;;3.20;;
68690;SDS011;55675;49.588;8.640;2023-04-15T07:06:30;4.83;;;3.50;;
68690;SDS011;55675;49.588;8.640;2023-04-15T07:08:56;5.13;;;3.03;;
68690;SDS011;55675;49.588;8.640;2023-04-15T07:11:22;4.23;;;3.10;;
68690;SDS011;55675;49.588;8.640;2023-04-15T07:13:49;3.00;;;2.70;;
68690;SDS011;55675;49.588;8.640;2023-04-15T07:16:15;4.43;;;3.33;;
68690;SDS011;55675;49.588;8.640;2023-04-15T07:18:40;5.47;;;2.93;;
68690;SDS011;55675;49.588;8.640;2023-04-15T07:21:06;3.63;;;2.90;;
68690;SDS011;55675;49.588;8.640;2023-04-15T07:23:32;4.17;;;3.17;;
68690;SDS011;55675;49.588;8.640;2023-04-15T07:25:57;4.30;;;2.93;;
68690;SDS011;55675;49.588;8.640;2023-04-15T07:28:23;3.00;;;2.70;;
68690;SDS011;55675;49.588;8.640;2023-04-15T07:30:48;4.93;;;2.90;;
68690;SDS011;55675;49.588;8.640;2023-04-15T07:33:14;3.47;;;2.73;;
68690;SDS011;55675;49.588;8.640;2023-04-15T07:35:39;3.83;;;2.73;;
68690;SDS011;55675;49.588;8.640;2023-04-15T07:38:05;3.67;;;3.20;;
68690;SDS011;55675;49.588;8.640;2023-04-15T07:40:31;2.50;;;2.30;;
68690;SDS011;55675;49.588;8.640;2023-04-15T07:42:57;4.83;;;2.93;;
68690;SDS011;55675;49.588;8.640;2023-04-15T07:45:22;3.33;;;2.90;;
68690;SDS011;55675;49.588;8.640;2023-04-15T07:47:48;4.00;;;3.00;;
68690;SDS011;55675;49.588;8.640;2023-04-15T07:50:15;5.13;;;2.90;;
68690;SDS011;55675;49.588;8.640;2023-04-15T07:52:41;3.00;;;2.80;;
68690;SDS011;55675;49.588;8.640;2023-04-15T07:55:07;4.43;;;3.10;;
68690;SDS011;55675;49.588;8.640;2023-04-15T07:57:34;3.43;;;2.70;;
68690;SDS011;55675;49.588;8.640;2023-04-15T08:00:00;3.67;;;3.10;;
68690;SDS011;55675;49.588;8.640;2023-04-15T08:02:27;4.17;;;2.77;;
68690;SDS011;55675;49.588;8.640;2023-04-15T08:04:53;3.53;;;2.77;;
68690;SDS011;55675;49.588;8.640;2023-04-15T08:07:19;3.33;;;3.03;;
68690;SDS011;55675;49.588;8.640;2023-04-15T08:09:45;4.37;;;3.27;;
68690;SDS011;55675;49.588;8.640;2023-04-15T08:12:10;4.47;;;2.97;;
68690;SDS011;55675;49.588;8.640;2023-04-15T08:14:37;3.37;;;2.73;;
68690;SDS011;55675;49.588;8.640;2023-04-15T08:17:03;3.73;;;3.37;;
68690;SDS011;55675;49.588;8.640;2023-04-15T08:19:29;3.43;;;3.13;;
68690;SDS011;55675;49.588;8.640;2023-04-15T08:21:55;4.53;;;2.93;;
68690;SDS011;55675;49.588;8.640;2023-04-15T08:24:21;4.57;;;3.23;;
68690;SDS011;55675;49.588;8.640;2023-04-15T08:26:47;3.30;;;3.00;;
68690;SDS011;55675;49.588;8.640;2023-04-15T08:29:13;4.53;;;3.53;;
68690;SDS011;55675;49.588;8.640;2023-04-15T08:31:39;4.57;;;3.43;;
68690;SDS011;55675;49.588;8.640;2023-04-15T08:34:04;4.43;;;3.00;;
68690;SDS011;55675;49.588;8.640;2023-04-15T08:36:30;5.63;;;3.53;;
68690;SDS011;55675;49.588;8.640;2023-04-15T08:38:56;5.13;;;3.70;;
68690;SDS011;55675;49.588;8.640;2023-04-15T08:41:23;5.40;;;3.57;;
68690;SDS011;55675;49.588;8.640;2023-04-15T08:43:56;4.63;;;3.40;;
68690;SDS011;55675;49.588;8.640;2023-04-15T08:46:30;5.13;;;3.60;;
68690;SDS011;55675;49.588;8.640;2023-04-15T08:48:58;5.23;;;3.60;;
68690;SDS011;55675;49.588;8.640;2023-04-15T08:51:27;4.40;;;3.27;;
68690;SDS011;55675;49.588;8.640;2023-04-15T08:53:53;3.50;;;3.20;;
68690;SDS011;55675;49.588;8.640;2023-04-15T08:56:19;5.83;;;3.97;;
68690;SDS011;55675;49.588;8.640;2023-04-15T08:58:50;5.93;;;3.60;;
68690;SDS011;55675;49.588;8.640;2023-04-15T09:01:17;4.30;;;3.43;;
68690;SDS011;55675;49.588;8.640;2023-04-15T09:03:43;4.20;;;3.60;;
68690;SDS011;55675;49.588;8.640;2023-04-15T09:06:08;5.77;;;4.00;;
68690;SDS011;55675;49.588;8.640;2023-04-15T09:08:34;5.60;;;3.73;;
68690;SDS011;55675;49.588;8.640;2023-04-15T09:11:00;5.33;;;4.20;;
68690;SDS011;55675;49.588;8.640;2023-04-15T09:13:27;6.33;;;4.37;;
68690;SDS011;55675;49.588;8.640;2023-04-15T09:15:53;4.80;;;3.57;;
68690;SDS011;55675;49.588;8.640;2023-04-15T09:18:29;8.30;;;4.50;;
68690;SDS011;55675;49.588;8.640;2023-04-15T09:20:55;5.73;;;3.80;;
68690;SDS011;55675;49.588;8.640;2023-04-15T09:23:33;4.87;;;4.13;;
68690;SDS011;55675;49.588;8.640;2023-04-15T09:26:00;4.93;;;3.93;;
68690;SDS011;55675;49.588;8.640;2023-04-15T09:28:28;5.27;;;3.87;;
68690;SDS011;55675;49.588;8.640;2023-04-15T09:30:58;5.43;;;4.00;;
68690;SDS011;55675;49.588;8.640;2023-04-15T09:33:24;4.10;;;3.70;;
68690;SDS011;55675;49.588;8.640;2023-04-15T09:36:00;3.93;;;3.43;;
68690;SDS011;55675;49.588;8.640;2023-04-15T09:38:28;4.03;;;3.63;;
68690;SDS011;55675;49.588;8.640;2023-04-15T09:40:54;4.30;;;3.90;;
68690;SDS011;55675;49.588;8.640;2023-04-15T09:43:20;4.97;;;3.77;;
68690;SDS011;55675;49.588;8.640;2023-04-15T09:45:47;4.10;;;3.77;;
68690;SDS011;55675;49.588;8.640;2023-04-15T09:48:15;5.07;;;4.10;;
68690;SDS011;55675;49.588;8.640;2023-04-15T09:50:45;3.90;;;3.53;;
68690;SDS011;55675;49.588;8.640;2023-04-15T09:53:15;4.30;;;3.80;;
68690;SDS011;55675;49.588;8.640;2023-04-15T09:55:49;4.40;;;4.00;;
68690;SDS011;55675;49.588;8.640;2023-04-15T09:58:17;4.10;;;3.70;;
68690;SDS011;55675;49.588;8.640;2023-04-15T10:00:43;5.13;;;3.80;;
68690;SDS011;55675;49.588;8.640;2023-04-15T10:03:11;4.30;;;3.40;;
68690;SDS011;55675;49.588;8.640;2023-04-15T10:05:39;4.30;;;3.27;;
68690;SDS011;55675;49.588;8.640;2023-04-15T10:08:05;4.03;;;2.80;;
68690;SDS011;55675;49.588;8.640;2023-04-15T10:10:31;3.57;;;3.03;;
68690;SDS011;55675;49.588;8.640;2023-04-15T10:12:57;3.70;;;2.70;;
68690;SDS011;55675;49.588;8.640;2023-04-15T10:15:23;3.43;;;2.70;;
68690;SDS011;55675;49.588;8.640;2023-04-15T10:17:49;2.37;;;2.17;;
68690;SDS011;55675;49.588;8.640;2023-04-15T10:20:17;2.57;;;1.97;;
68690;SDS011;55675;49.588;8.640;2023-04-15T10:22:44;3.03;;;2.73;;
68690;SDS011;55675;49.588;8.640;2023-04-15T10:25:11;2.53;;;2.27;;
68690;SDS011;55675;49.588;8.640;2023-04-15T10:27:38;2.60;;;1.80;;
68690;SDS011;55675;49.588;8.640;2023-04-15T10:30:06;2.63;;;1.97;;
68690;SDS011;55675;49.588;8.640;2023-04-15T10:32:33;3.23;;;1.70;;
68690;SDS011;55675;49.588;8.640;2023-04-15T10:34:58;2.23;;;1.60;;
68690;SDS011;55675;49.588;8.640;2023-04-15T10:37:32;2.33;;;1.90;;
68690;SDS011;55675;49.588;8.640;2023-04-15T10:40:44;2.60;;;2.10;;
68690;SDS011;55675;49.588;8.640;2023-04-15T10:42:52;2.80;;;1.60;;
68690;SDS011;55675;49.588;8.640;2023-04-15T10:45:18;1.63;;;1.40;;
68690;SDS011;55675;49.588;8.640;2023-04-15T10:47:44;1.40;;;1.30;;
68690;SDS011;55675;49.588;8.640;2023-04-15T10:50:10;1.40;;;1.30;;
68690;SDS011;55675;49.588;8.640;2023-04-15T10:52:36;2.03;;;1.47;;
68690;SDS011;55675;49.588;8.640;2023-04-15T10:55:18;1.63;;;1.13;;
68690;SDS011;55675;49.588;8.640;2023-04-15T10:57:46;1.60;;;1.50;;
68690;SDS011;55675;49.588;8.640;2023-04-15T11:00:15;1.67;;;1.37;;
68690;SDS011;55675;49.588;8.640;2023-04-15T11:02:43;1.40;;;1.30;;
68690;SDS011;55675;49.588;8.640;2023-04-15T11:05:11;2.13;;;1.20;;
68690;SDS011;55675;49.588;8.640;2023-04-15T11:07:48;2.60;;;1.43;;
68690;SDS011;55675;49.588;8.640;2023-04-15T11:12:58;1.13;;;1.10;;
68690;SDS011;55675;49.588;8.640;2023-04-15T11:15:27;1.40;;;1.30;;
68690;SDS011;55675;49.588;8.640;2023-04-15T11:17:55;2.87;;;1.20;;
68690;SDS011;55675;49.588;8.640;2023-04-15T11:20:21;0.90;;;0.90;;
68690;SDS011;55675;49.588;8.640;2023-04-15T11:22:47;1.10;;;1.00;;
68690;SDS011;55675;49.588;8.640;2023-04-15T11:25:21;1.33;;;1.00;;
68690;SDS011;55675;49.588;8.640;2023-04-15T11:27:47;1.20;;;0.90;;
68690;SDS011;55675;49.588;8.640;2023-04-15T11:30:20;1.10;;;1.00;;
68690;SDS011;55675;49.588;8.640;2023-04-15T11:32:52;1.63;;;1.10;;
68690;SDS011;55675;49.588;8.640;2023-04-15T11:35:19;1.43;;;1.13;;
68690;SDS011;55675;49.588;8.640;2023-04-15T11:37:45;0.93;;;0.83;;
68690;SDS011;55675;49.588;8.640;2023-04-15T11:40:11;2.33;;;1.10;;
68690;SDS011;55675;49.588;8.640;2023-04-15T11:42:37;1.47;;;1.07;;
68690;SDS011;55675;49.588;8.640;2023-04-15T11:45:09;1.27;;;1.00;;
68690;SDS011;55675;49.588;8.640;2023-04-15T11:47:40;1.83;;;1.13;;
68690;SDS011;55675;49.588;8.640;2023-04-15T11:50:21;1.30;;;1.20;;
68690;SDS011;55675;49.588;8.640;2023-04-15T11:53:00;1.37;;;1.07;;
68690;SDS011;55675;49.588;8.640;2023-04-15T11:55:27;2.00;;;1.37;;
68690;SDS011;55675;49.588;8.640;2023-04-15T11:58:07;1.17;;;1.07;;
68690;SDS011;55675;49.588;8.640;2023-04-15T12:00:42;1.47;;;1.00;;
68690;SDS011;55675;49.588;8.640;2023-04-15T12:03:22;2.10;;;1.40;;
68690;SDS011;55675;49.588;8.640;2023-04-15T12:14:02;1.47;;;1.37;;
68690;SDS011;55675;49.588;8.640;2023-04-15T12:16:33;1.97;;;1.60;;
68690;SDS011;55675;49.588;8.640;2023-04-15T12:19:26;1.97;;;1.80;;
68690;SDS011;55675;49.588;8.640;2023-04-15T12:22:13;2.03;;;1.80;;
68690;SDS011;55675;49.588;8.640;2023-04-15T12:24:40;1.70;;;1.60;;
68690;SDS011;55675;49.588;8.640;2023-04-15T12:27:12;2.30;;;1.70;;
68690;SDS011;55675;49.588;8.640;2023-04-15T12:29:40;1.93;;;1.60;;
68690;SDS011;55675;49.588;8.640;2023-04-15T12:32:10;2.00;;;1.50;;
68690;SDS011;55675;49.588;8.640;2023-04-15T12:34:41;2.50;;;1.80;;
68690;SDS011;55675;49.588;8.640;2023-04-15T12:37:16;1.80;;;1.70;;
68690;SDS011;55675;49.588;8.640;2023-04-15T12:39:43;1.80;;;1.60;;
68690;SDS011;55675;49.588;8.640;2023-04-15T12:42:09;1.83;;;1.73;;
68690;SDS011;55675;49.588;8.640;2023-04-15T12:44:36;1.60;;;1.50;;
68690;SDS011;55675;49.588;8.640;2023-04-15T12:47:03;2.87;;;2.00;;
68690;SDS011;55675;49.588;8.640;2023-04-15T12:49:29;2.70;;;1.73;;
68690;SDS011;55675;49.588;8.640;2023-04-15T12:51:56;2.73;;;1.83;;
68690;SDS011;55675;49.588;8.640;2023-04-15T12:54:24;1.90;;;1.50;;
68690;SDS011;55675;49.588;8.640;2023-04-15T12:56:51;4.60;;;1.83;;
68690;SDS011;55675;49.588;8.640;2023-04-15T12:59:17;1.50;;;1.40;;
68690;SDS011;55675;49.588;8.640;2023-04-15T13:01:42;1.60;;;1.30;;
68690;SDS011;55675;49.588;8.640;2023-04-15T13:04:09;1.43;;;1.33;;
68690;SDS011;55675;49.588;8.640;2023-04-15T13:06:35;1.33;;;1.23;;
68690;SDS011;55675;49.588;8.640;2023-04-15T13:09:02;1.60;;;1.40;;
68690;SDS011;55675;49.588;8.640;2023-04-15T13:11:28;2.30;;;1.50;;
68690;SDS011;55675;49.588;8.640;2023-04-15T13:14:01;1.70;;;1.30;;
68690;SDS011;55675;49.588;8.640;2023-04-15T13:16:31;1.40;;;1.23;;
68690;SDS011;55675;49.588;8.640;2023-04-15T13:19:00;1.57;;;1.30;;
68690;SDS011;55675;49.588;8.640;2023-04-15T13:21:26;1.27;;;1.17;;
68690;SDS011;55675;49.588;8.640;2023-04-15T13:23:52;1.37;;;1.27;;
68690;SDS011;55675;49.588;8.640;2023-04-15T13:26:18;1.00;;;1.00;;
68690;SDS011;55675;49.588;8.640;2023-04-15T13:28:44;1.23;;;1.07;;
68690;SDS011;55675;49.588;8.640;2023-04-15T13:31:10;1.87;;;1.07;;
68690;SDS011;55675;49.588;8.640;2023-04-15T13:33:35;1.10;;;0.90;;
68690;SDS011;55675;49.588;8.640;2023-04-15T13:36:01;1.10;;;1.00;;
68690;SDS011;55675;49.588;8.640;2023-04-15T13:38:27;2.43;;;1.20;;
68690;SDS011;55675;49.588;8.640;2023-04-15T13:40:52;1.57;;;1.30;;
68690;SDS011;55675;49.588;8.640;2023-04-15T13:43:18;1.23;;;1.13;;
68690;SDS011;55675;49.588;8.640;2023-04-15T13:45:43;1.20;;;1.20;;
68690;SDS011;55675;49.588;8.640;2023-04-15T13:48:10;1.87;;;1.33;;
68690;SDS011;55675;49.588;8.640;2023-04-15T13:50:36;1.67;;;1.37;;
68690;SDS011;55675;49.588;8.640;2023-04-15T13:53:01;1.97;;;1.80;;
68690;SDS011;55675;49.588;8.640;2023-04-15T13:55:27;1.97;;;1.87;;
68690;SDS011;55675;49.588;8.640;2023-04-15T13:57:52;1.57;;;1.30;;
68690;SDS011;55675;49.588;8.640;2023-04-15T14:00:18;1.50;;;1.40;;
68690;SDS011;55675;49.588;8.640;2023-04-15T14:02:43;1.80;;;1.50;;
68690;SDS011;55675;49.588;8.640;2023-04-15T14:05:10;1.77;;;1.50;;
68690;SDS011;55675;49.588;8.640;2023-04-15T14:07:35;1.77;;;1.67;;
68690;SDS011;55675;49.588;8.640;2023-04-15T14:10:02;4.50;;;4.10;;
68690;SDS011;55675;49.588;8.640;2023-04-15T14:12:28;1.60;;;1.50;;
68690;SDS011;55675;49.588;8.640;2023-04-15T14:14:54;1.53;;;1.40;;
68690;SDS011;55675;49.588;8.640;2023-04-15T14:17:19;1.63;;;1.27;;
68690;SDS011;55675;49.588;8.640;2023-04-15T14:19:45;1.40;;;1.10;;
68690;SDS011;55675;49.588;8.640;2023-04-15T14:22:11;1.40;;;0.97;;
68690;SDS011;55675;49.588;8.640;2023-04-15T14:24:36;1.30;;;1.20;;
68690;SDS011;55675;49.588;8.640;2023-04-15T14:27:02;1.17;;;1.07;;
68690;SDS011;55675;49.588;8.640;2023-04-15T14:29:27;1.37;;;1.27;;
68690;SDS011;55675;49.588;8.640;2023-04-15T14:31:53;1.40;;;1.30;;
68690;SDS011;55675;49.588;8.640;2023-04-15T14:34:21;1.40;;;1.30;;
68690;SDS011;55675;49.588;8.640;2023-04-15T14:36:49;1.10;;;1.10;;
68690;SDS011;55675;49.588;8.640;2023-04-15T14:39:15;1.20;;;1.10;;
68690;SDS011;55675;49.588;8.640;2023-04-15T14:41:40;1.30;;;1.20;;
68690;SDS011;55675;49.588;8.640;2023-04-15T14:44:06;1.03;;;1.03;;
68690;SDS011;55675;49.588;8.640;2023-04-15T14:46:33;1.30;;;1.20;;
68690;SDS011;55675;49.588;8.640;2023-04-15T14:48:59;1.37;;;1.27;;
68690;SDS011;55675;49.588;8.640;2023-04-15T14:51:24;0.93;;;0.93;;
68690;SDS011;55675;49.588;8.640;2023-04-15T14:53:50;1.73;;;1.07;;
68690;SDS011;55675;49.588;8.640;2023-04-15T14:56:16;0.80;;;0.80;;
68690;SDS011;55675;49.588;8.640;2023-04-15T14:58:41;0.83;;;0.83;;